• Join FlightAware (Why Join?)
  • Login
  • US Flag 
04:27PM EDT


 

Airport Tracker/Info


-or-


 

Live Flight TrackerFlight Track Log ✈ N507HH ✈ 10-May-2013 ✈ KSUZ - KDWH

Flight Track Log - Related Links

Times and Time Zones

All times are in EDT time to prevent confusion due to time zone crossing. See the N507HH flight status page for this flight to view local times or setup timezone preferences in your user account.

Time Position Orientation Groundspeed Altitude Reporting Facility
EDT Latitude Longitude Course Direction KTS MPH feet Rate Location/Type
03:45PM 34.4775 -92.7456 243° Southwest 129 148 4,900  Level Memphis Center
03:46PM 34.4458 -92.7672 209° Southwest 134 154 5,300 420 Climbing Memphis Center
03:47PM 34.4139 -92.7942 215° Southwest 139 160 5,800 300 Climbing Memphis Center
03:48PM 34.3781 -92.8133 204° Southwest 139 160 6,000 120 Climbing Memphis Center
03:49PM 34.3403 -92.8297 200° South 139 160 6,100 240 Climbing Memphis Center
03:50PM 34.2961 -92.8461 197° South 144 166 6,500 480 Climbing Memphis Center
03:51PM 34.2625 -92.8603 199° South 144 166 7,100 600 Climbing Memphis Center
03:52PM 34.2308 -92.8794 207° Southwest 139 160 7,700 600 Climbing Memphis Center
03:53PM 34.2072 -92.9064 223° Southwest 129 148 8,300 540 Climbing Memphis Center
03:54PM 34.1800 -92.9206 203° Southwest 123 142 8,800 480 Climbing Memphis Center
03:55PM 34.1500 -92.9500 219° Southwest 122 140 9,300 600 Climbing Memphis Center
03:56PM 34.1306 -92.9844 236° Southwest 127 146 10,100 540 Climbing Memphis Center
03:57PM 34.1069 -93.0089 221° Southwest 127 146 10,400 360 Climbing Memphis Center
03:58PM 34.0775 -93.0303 211° Southwest 122 140 10,900 540 Climbing Memphis Center
04:00PM 34.0208 -93.0633 206° Southwest 127 146 12,000 540 Climbing Fort Worth Center
04:01PM 34.0011 -93.0969 235° Southwest 127 146 12,600 480 Climbing Fort Worth Center
04:02PM 33.9900 -93.1350 251° West 127 146 13,000 360 Climbing Fort Worth Center
04:03PM 33.9808 -93.1781 256° West 132 152 13,400 420 Climbing Fort Worth Center
04:04PM 33.9758 -93.2158 261° West 127 146 13,900 480 Climbing Fort Worth Center
04:05PM 33.9708 -93.2536 261° West 127 146 14,400 480 Climbing Fort Worth Center
04:06PM 33.9681 -93.2914 265° West 127 146 14,900 420 Climbing Fort Worth Center
04:07PM 33.9631 -93.3292 261° West 127 146 15,300 300 Climbing Fort Worth Center
04:08PM 33.9539 -93.3672 254° West 122 140 15,600 300 Climbing Fort Worth Center
04:09PM 33.9403 -93.4003 244° Southwest 122 140 15,900 120 Climbing Fort Worth Center
04:10PM 33.9225 -93.4336 237° Southwest 122 140 15,900  Level Fort Worth Center
04:11PM 33.8878 -93.4578 210° Southwest 127 146 15,900  Level Fort Worth Center
04:12PM 33.8508 -93.4794 206° Southwest 140 161 15,900  Level Fort Worth Center
04:13PM 33.8161 -93.5011 207° Southwest 146 168 15,900  Level Fort Worth Center
04:14PM 33.7792 -93.5228 206° Southwest 151 174 16,000  Climbing Fort Worth Center
04:15PM 33.7403 -93.5444 205° Southwest 156 180 15,900  Descending Fort Worth Center
04:16PM 33.7014 -93.5661 205° Southwest 156 180 16,000  Climbing Fort Worth Center
04:17PM 33.6644 -93.5878 206° Southwest 156 180 16,000 -60 Level Fort Worth Center
04:18PM 33.6253 -93.6094 205° Southwest 156 180 15,900  Descending Fort Worth Center
04:19PM 33.5950 -93.6381 218° Southwest 151 174 16,000  Climbing Fort Worth Center
04:20PM 33.5606 -93.6719 219° Southwest 156 180 16,000 -60 Level Fort Worth Center
04:21PM 33.5281 -93.7008 217° Southwest 156 180 15,900 -60 Descending Fort Worth Center
04:22PM 33.4889 -93.7247 207° Southwest 151 174 15,900  Level Fort Worth Center
04:23PM 33.4497 -93.7414 200° South 151 174 16,000  Climbing Fort Worth Center
04:24PM 33.4047 -93.7706 208° Southwest 156 180 15,900  Descending Fort Worth Center
04:25PM 33.3678 -93.7919 206° Southwest 156 180 16,000  Climbing Fort Worth Center
04:26PM 33.3286 -93.8086 200° South 156 180 15,900 -60 Descending Fort Worth Center
04:27PM 33.2917 -93.8300 206° Southwest 156 180 15,900  Level Fort Worth Center
04:28PM 33.2547 -93.8514 206° Southwest 156 180 16,000  Climbing Fort Worth Center
04:29PM 33.2158 -93.8753 207° Southwest 156 180 16,000 -60 Level Fort Worth Center
04:30PM 33.1831 -93.9039 216° Southwest 149 171 15,900  Descending Fort Worth Center
04:31PM 33.1506 -93.9300 214° Southwest 149 171 16,000  Climbing Fort Worth Center
04:32PM 33.1178 -93.9561 214° Southwest 144 166 16,000  Level Fort Worth Center
04:33PM 33.0831 -93.9822 212° Southwest 144 166 16,000  Level Fort Worth Center
04:34PM 33.0436 -93.9936 194° South 144 166 16,000  Level Fort Worth Center
04:35PM 33.0003 -94.0053 193° South 150 173 16,000  Level Fort Worth Center
04:36PM 32.9567 -94.0142 190° South 156 180 16,100  Climbing Fort Worth Center
04:37PM 32.9153 -94.0356 203° Southwest 161 185 16,000 -120 Descending Fort Worth Center
04:38PM 32.8722 -94.0619 207° Southwest 166 191 15,900 -60 Descending Fort Worth Center
04:39PM 32.8353 -94.0856 208° Southwest 171 197 15,900  Level Fort Worth Center
04:40PM 32.8022 -94.1017 202° Southwest 171 197 15,900  Level Fort Worth Center
04:41PM 32.7569 -94.1256 204° Southwest 171 197 15,900  Level Fort Worth Center
04:42PM 32.7139 -94.1519 207° Southwest 171 197 16,000  Climbing Fort Worth Center
04:43PM 32.6789 -94.1728 207° Southwest 166 191 15,900 -60 Descending Fort Worth Center
04:44PM 32.6358 -94.1967 205° Southwest 166 191 15,900  Level Fort Worth Center
04:45PM 32.5947 -94.2203 206° Southwest 161 185 15,900  Level Fort Worth Center
04:46PM 32.5533 -94.2389 201° Southwest 161 185 15,900  Level Fort Worth Center
04:47PM 32.5119 -94.2578 201° Southwest 161 185 15,900  Level Fort Worth Center
04:48PM 32.4750 -94.2836 211° Southwest 161 185 15,900  Level Fort Worth Center
04:49PM 32.4358 -94.3047 204° Southwest 161 185 15,900  Level Fort Worth Center
04:50PM 32.3969 -94.3256 204° Southwest 156 180 16,000  Climbing Fort Worth Center
04:51PM 32.3556 -94.3492 206° Southwest 156 180 15,900 -60 Descending Fort Worth Center
04:52PM 32.3144 -94.3703 203° Southwest 156 180 15,900  Level Fort Worth Center
04:53PM 32.2731 -94.3914 203° Southwest 156 180 15,900  Level Fort Worth Center
04:54PM 32.2319 -94.4147 206° Southwest 163 188 15,900  Level Fort Worth Center
04:55PM 32.1886 -94.4358 202° Southwest 163 188 15,900  Level Fort Worth Center
04:56PM 32.1475 -94.4617 208° Southwest 169 194 15,900  Level Fort Worth Center
04:57PM 32.1042 -94.4828 202° Southwest 169 194 15,900  Level Fort Worth Center
04:58PM 32.0650 -94.5061 207° Southwest 169 194 15,900  Level Fort Worth Center
04:59PM 32.0239 -94.5294 206° Southwest 169 194 15,900  Level Fort Worth Center
05:00PM 31.9825 -94.5478 201° Southwest 169 194 15,900  Level Fort Worth Center
05:01PM 31.9453 -94.5686 205° Southwest 169 194 15,900  Level Fort Worth Center
05:02PM 31.9042 -94.5919 206° Southwest 169 194 15,900  Level Fort Worth Center
05:03PM 31.8628 -94.6103 201° Southwest 169 194 15,900  Level Fort Worth Center
05:04PM 31.8236 -94.6333 207° Southwest 169 194 15,900  Level Fort Worth Center
05:05PM 31.7822 -94.6542 203° Southwest 169 194 15,900  Level Fort Worth Center
05:06PM 31.7431 -94.6750 204° Southwest 169 194 15,900  Level Fort Worth Center
05:08PM 31.6661 -94.7167 205° Southwest 152 175 15,900  Level Houston Center
05:09PM 31.6183 -94.7408 203° Southwest 154 177 15,900  Level Houston Center
05:10PM 31.5797 -94.7617 205° Southwest 153 176 15,900  Level Houston Center
05:11PM 31.5411 -94.7822 204° Southwest 152 175 15,900  Level Houston Center
05:12PM 31.5022 -94.8033 205° Southwest 155 178 15,900  Level Houston Center
05:13PM 31.4633 -94.8242 205° Southwest 154 177 15,900  Level Houston Center
05:14PM 31.4236 -94.8444 204° Southwest 155 178 15,900  Level Houston Center
05:15PM 31.3767 -94.8700 205° Southwest 156 180 15,900  Level Houston Center
05:17PM 31.3372 -94.8903 204° Southwest 156 180 15,900  Level Houston Center
05:18PM 31.2986 -94.9114 205° Southwest 156 180 15,900  Level Houston Center
05:19PM 31.2600 -94.9322 205° Southwest 154 177 15,900 -60 Level Houston Center
05:20PM 31.2217 -94.9511 203° Southwest 152 175 15,800 -540 Descending Houston Center
05:21PM 31.1767 -94.9803 209° Southwest 154 177 14,900 -840 Descending Houston Center
05:22PM 31.1358 -95.0092 211° Southwest 171 197 14,100 -960 Descending Houston Center
05:23PM 31.0825 -95.0247 194° South 193 222 13,000 -1,020 Descending Houston Center
05:24PM 31.0294 -95.0456 199° South 200 230 12,100 -960 Descending Houston Center
05:25PM 30.9800 -95.0700 203° Southwest 195 224 11,100 -960 Descending Houston Center
05:26PM 30.9342 -95.1019 211° Southwest 192 221 10,200 -1,020 Descending Houston Center
05:27PM 30.8803 -95.1358 208° Southwest 186 214 9,100 -960 Descending Houston Center
05:27PM 30.8611 -95.1439 200° South 185 213 8,800 -780 Descending Houston Center
05:28PM 30.8322 -95.1569 201° Southwest 185 213 8,300 -900 Descending Houston Center
05:28PM 30.8167 -95.1639 201° Southwest 187 215 8,000 -900 Descending Houston Center
05:29PM 30.7844 -95.1800 203° Southwest 186 214 7,400 -840 Descending Houston Center
05:30PM 30.7244 -95.2117 204° Southwest 190 219 6,400 -900 Descending Houston Center
05:31PM 30.6744 -95.2397 206° Southwest 186 214 5,500 -780 Descending Houston Center
05:32PM 30.6433 -95.2567 205° Southwest 184 212 5,000 -480 Descending Houston Center
05:32PM 30.6244 -95.2653 201° Southwest 179 206 5,000  Level Houston Center
05:33PM 30.5936 -95.2825 206° Southwest 169 194 5,000  Level Houston Center
05:34PM 30.5544 -95.3008 202° Southwest 155 178 5,000 -240 Level Houston Center
05:35PM 30.5117 -95.3208 202° Southwest 161 185 4,600 -540 Descending Houston Center
05:36PM 30.4697 -95.3528 213° Southwest 174 200 4,000 -660 Descending Houston Center
05:37PM 30.4283 -95.3914 219° Southwest 187 215 3,300 -540 Descending Houston Center
05:38PM 30.3722 -95.4244 207° Southwest 185 213 2,900 -240 Descending Houston Center
05:39PM 30.3361 -95.4431 204° Southwest 169 194 2,900 -180 Level Houston Center
05:40PM 30.2967 -95.4653 206° Southwest 160 184 2,600 -480 Descending Houston Center
05:41PM 30.2436 -95.4883 201° Southwest 186 214 1,900 -480 Descending Houston Center
05:42PM 30.2028 -95.5031 197° South 176 203 1,700 -300 Descending Houston Center
05:43PM 30.1511 -95.5300 204° Southwest 173 199 1,400 -300 Descending Houston Center
05:44PM 30.1119 -95.5578 212° Southwest 169 194 1,200 -300 Descending Houston Center
05:45PM 30.0772 -95.5572 179° South 160 184 900 -300 Descending Houston Center
05:47PM 30.0618 -95.5528 203° Southwest  Level Estimated
05:54PM 30.0618 -95.5528 203° Southwest  Level Estimated